Time,TemperatureF,DewpointF,PressureIn,WindDirection,WindDirectionDegrees,WindSpeedMPH,WindSpeedGustMPH,Humidity,HourlyPrecipIn,Conditions,Clouds,dailyrainin,SoftwareType,DateUTC
2013-02-28 00:00:00,40.4,39.4,29.60,WNW,288,9.2,9.2,96,0.00,OVC,,0.82,WeatherDisplay:10.37,2013-02-28 05:00:00,
2013-02-28 00:05:00,40.2,39.2,29.61,WNW,296,4.6,4.6,96,0.00,RA,,0.00,WeatherDisplay:10.37,2013-02-28 05:05:00,
2013-02-28 00:11:00,40.1,39.1,29.61,WNW,291,4.6,4.6,96,0.00,SCT,,0.00,WeatherDisplay:10.37,2013-02-28 05:11:00,
2013-02-28 00:16:00,40.0,39.0,29.61,WNW,288,4.6,4.6,96,0.00,SCT,,0.00,WeatherDisplay:10.37,2013-02-28 05:16:00,
2013-02-28 00:21:00,39.9,38.9,29.61,West,279,4.6,4.6,96,0.00,SCT,,0.00,WeatherDisplay:10.37,2013-02-28 05:21:00,
2013-02-28 00:26:00,39.8,38.8,29.61,NW,310,5.0,5.0,96,0.00,SCT,,0.00,WeatherDisplay:10.37,2013-02-28 05:26:00,
2013-02-28 00:31:00,39.7,38.7,29.60,NNW,327,8.1,8.1,96,0.00,SCT,,0.00,WeatherDisplay:10.37,2013-02-28 05:31:00,
2013-02-28 00:37:00,39.6,38.6,29.60,NW,315,5.8,5.8,96,0.00,SCT,,0.00,WeatherDisplay:10.37,2013-02-28 05:37:00,
2013-02-28 00:42:00,39.5,38.5,29.60,WNW,295,5.8,5.8,96,0.00,SCT,,0.00,WeatherDisplay:10.37,2013-02-28 05:42:00,
2013-02-28 00:47:00,39.5,38.5,29.60,WNW,301,8.0,8.0,96,0.00,SCT,,0.00,WeatherDisplay:10.37,2013-02-28 05:47:00,
2013-02-28 00:52:00,39.4,38.4,29.60,WNW,298,3.5,3.5,96,0.00,SCT,,0.00,WeatherDisplay:10.37,2013-02-28 05:52:00,
2013-02-28 00:57:00,39.3,38.3,29.60,WNW,289,5.8,5.8,96,0.00,SCT,,0.00,WeatherDisplay:10.37,2013-02-28 05:57:00,
2013-02-28 01:03:00,39.2,38.2,29.60,WNW,297,6.9,6.9,96,0.00,FEW,,0.00,WeatherDisplay:10.37,2013-02-28 06:03:00,
2013-02-28 01:08:00,39.1,38.1,29.60,NW,321,7.0,7.0,96,0.00,FEW,,0.00,WeatherDisplay:10.37,2013-02-28 06:08:00,
2013-02-28 01:13:00,39.0,38.0,29.60,NW,324,5.8,5.8,96,0.00,FEW,,0.00,WeatherDisplay:10.37,2013-02-28 06:13:00,
2013-02-28 01:18:00,38.9,37.9,29.59,NW,321,5.8,5.8,96,0.00,FEW,,0.00,WeatherDisplay:10.37,2013-02-28 06:18:00,
2013-02-28 01:23:00,38.8,37.8,29.59,NNW,346,11.5,11.5,96,0.00,FEW,,0.00,WeatherDisplay:10.37,2013-02-28 06:23:00,
2013-02-28 01:28:00,38.7,37.4,29.58,North,355,11.5,11.5,95,0.00,FEW,,0.00,WeatherDisplay:10.37,2013-02-28 06:28:00,
2013-02-28 01:33:00,38.6,37.3,29.59,NW,315,8.1,8.1,95,0.00,FEW,,0.00,WeatherDisplay:10.37,2013-02-28 06:33:00,
2013-02-28 01:39:00,38.5,37.2,29.59,WNW,302,5.8,5.8,95,0.00,FEW,,0.00,WeatherDisplay:10.37,2013-02-28 06:39:00,
2013-02-28 01:44:00,38.4,37.4,29.59,NW,317,4.0,4.0,96,0.00,FEW,,0.00,WeatherDisplay:10.37,2013-02-28 06:44:00,
2013-02-28 01:49:00,38.4,37.4,29.59,NW,317,4.0,4.0,96,0.00,FEW,,0.00,WeatherDisplay:10.37,2013-02-28 06:49:00,
2013-02-28 01:54:00,38.4,37.4,29.59,NW,317,2.3,2.3,96,0.00,FEW,,0.00,WeatherDisplay:10.37,2013-02-28 06:54:00,
2013-02-28 01:59:00,38.4,37.4,29.59,NNW,342,4.0,4.0,96,0.00,FEW,,0.00,WeatherDisplay:10.37,2013-02-28 06:59:00,
2013-02-28 02:05:00,38.3,37.3,29.59,West,277,4.6,4.6,96,0.00,OVC,,0.00,WeatherDisplay:10.37,2013-02-28 07:05:00,
2013-02-28 02:10:00,38.3,37.3,29.59,WNW,303,2.3,2.3,96,0.00,OVC,,0.00,WeatherDisplay:10.37,2013-02-28 07:10:00,
2013-02-28 02:15:00,38.3,37.3,29.59,West,263,5.0,5.0,96,0.00,OVC,,0.00,WeatherDisplay:10.37,2013-02-28 07:15:00,
2013-02-28 02:20:00,38.3,37.3,29.60,West,261,4.0,4.0,96,0.00,OVC,,0.00,WeatherDisplay:10.37,2013-02-28 07:20:00,
2013-02-28 02:26:00,38.2,37.2,29.60,WSW,242,3.5,3.5,96,0.00,OVC,,0.00,WeatherDisplay:10.37,2013-02-28 07:26:00,
2013-02-28 02:31:00,38.2,37.2,29.60,WSW,238,4.6,4.6,96,0.00,OVC,,0.00,WeatherDisplay:10.37,2013-02-28 07:31:00,
2013-02-28 02:36:00,38.1,37.1,29.60,West,267,3.5,3.5,96,0.00,OVC,,0.00,WeatherDisplay:10.37,2013-02-28 07:36:00,
2013-02-28 02:41:00,38.1,36.8,29.60,WSW,247,3.5,3.5,95,0.00,OVC,,0.00,WeatherDisplay:10.37,2013-02-28 07:41:00,
2013-02-28 02:46:00,38.0,36.7,29.60,WSW,247,3.5,0.0,95,0.00,OVC,,0.00,WeatherDisplay:10.37,2013-02-28 07:46:00,
2013-02-28 02:52:00,38.0,36.7,29.60,WSW,247,0.0,0.0,95,0.00,OVC,,0.00,WeatherDisplay:10.37,2013-02-28 07:52:00,
2013-02-28 02:57:00,38.0,36.7,29.60,WSW,247,0.0,0.0,95,0.00,OVC,,0.00,WeatherDisplay:10.37,2013-02-28 07:57:00,
2013-02-28 03:02:00,38.0,36.7,29.60,WSW,247,0.0,0.0,95,0.00,OVC,,0.00,WeatherDisplay:10.37,2013-02-28 08:02:00,
2013-02-28 03:07:00,38.0,36.7,29.61,WSW,244,4.6,4.6,95,0.00,OVC,,0.00,WeatherDisplay:10.37,2013-02-28 08:07:00,
2013-02-28 03:12:00,37.9,36.6,29.61,WSW,244,3.0,3.0,95,0.00,OVC,,0.00,WeatherDisplay:10.37,2013-02-28 08:12:00,
2013-02-28 03:18:00,37.9,36.6,29.60,WSW,244,0.0,0.0,95,0.00,OVC,,0.00,WeatherDisplay:10.37,2013-02-28 08:18:00,
2013-02-28 03:23:00,38.0,36.7,29.60,WSW,244,3.5,3.5,95,0.00,OVC,,0.00,WeatherDisplay:10.37,2013-02-28 08:23:00,
2013-02-28 03:28:00,37.9,36.6,29.60,WSW,244,2.3,2.3,95,0.00,OVC,,0.00,WeatherDisplay:10.37,2013-02-28 08:28:00,
2013-02-28 03:33:00,37.9,36.6,29.60,WSW,244,2.3,2.3,95,0.00,OVC,,0.00,WeatherDisplay:10.37,2013-02-28 08:33:00,
2013-02-28 03:38:00,37.9,36.6,29.60,WSW,244,0.0,0.0,95,0.00,OVC,,0.00,WeatherDisplay:10.37,2013-02-28 08:38:00,
2013-02-28 03:43:00,37.9,36.6,29.60,WSW,244,1.1,1.1,95,0.00,OVC,,0.00,WeatherDisplay:10.37,2013-02-28 08:43:00,
2013-02-28 03:49:00,37.9,36.6,29.61,WSW,244,0.0,0.0,95,0.00,OVC,,0.00,WeatherDisplay:10.37,2013-02-28 08:49:00,
2013-02-28 03:54:00,37.9,36.6,29.61,WSW,244,2.0,2.0,95,0.00,OVC,,0.00,WeatherDisplay:10.37,2013-02-28 08:54:00,
2013-02-28 03:59:00,37.9,36.6,29.61,WSW,244,0.0,0.0,95,0.00,OVC,,0.00,WeatherDisplay:10.37,2013-02-28 08:59:00,
2013-02-28 04:04:00,37.8,36.5,29.61,WSW,244,1.1,1.1,95,0.00,OVC,,0.00,WeatherDisplay:10.37,2013-02-28 09:04:00,
2013-02-28 04:09:00,37.8,36.8,29.61,WSW,244,1.1,1.1,96,0.00,OVC,,0.00,WeatherDisplay:10.37,2013-02-28 09:09:00,
2013-02-28 04:14:00,37.7,36.7,29.61,WSW,244,0.0,0.0,96,0.00,OVC,,0.00,WeatherDisplay:10.37,2013-02-28 09:14:00,
2013-02-28 04:20:00,37.7,36.7,29.61,WSW,244,1.1,1.1,96,0.00,OVC,,0.00,WeatherDisplay:10.37,2013-02-28 09:20:00,
2013-02-28 04:25:00,37.7,36.7,29.61,WSW,244,0.0,0.0,96,0.00,OVC,,0.00,WeatherDisplay:10.37,2013-02-28 09:25:00,
2013-02-28 04:30:00,37.7,36.4,29.61,WSW,244,0.0,0.0,95,0.00,OVC,,0.00,WeatherDisplay:10.37,2013-02-28 09:30:00,
2013-02-28 04:35:00,37.6,36.3,29.61,WSW,244,0.0,0.0,95,0.00,OVC,,0.00,WeatherDisplay:10.37,2013-02-28 09:35:00,
2013-02-28 04:40:00,37.6,36.3,29.61,WSW,244,0.0,0.0,95,0.00,OVC,,0.00,WeatherDisplay:10.37,2013-02-28 09:40:00,
2013-02-28 04:46:00,37.6,36.3,29.61,WSW,244,0.0,0.0,95,0.00,OVC,,0.00,WeatherDisplay:10.37,2013-02-28 09:46:00,
2013-02-28 04:51:00,37.6,36.3,29.61,WSW,244,3.5,3.5,95,0.00,OVC,,0.00,WeatherDisplay:10.37,2013-02-28 09:51:00,
2013-02-28 04:56:00,37.6,36.3,29.61,WSW,244,3.5,3.5,95,0.00,OVC,,0.00,WeatherDisplay:10.37,2013-02-28 09:56:00,
2013-02-28 05:01:00,37.5,36.2,29.61,NNW,345,3.5,3.5,95,0.00,OVC,,0.00,WeatherDisplay:10.37,2013-02-28 10:01:00,
2013-02-28 05:06:00,37.5,36.2,29.61,NNW,345,0.0,0.0,95,0.00,OVC,,0.00,WeatherDisplay:10.37,2013-02-28 10:06:00,
2013-02-28 05:11:00,37.5,36.2,29.61,NNW,345,0.0,0.0,95,0.00,OVC,,0.00,WeatherDisplay:10.37,2013-02-28 10:11:00,
2013-02-28 05:17:00,37.4,36.1,29.61,NNW,345,3.5,3.5,95,0.00,OVC,,0.00,WeatherDisplay:10.37,2013-02-28 10:17:00,
2013-02-28 05:22:00,37.3,36.3,29.61,NNW,345,3.5,3.5,96,0.00,OVC,,0.00,WeatherDisplay:10.37,2013-02-28 10:22:00,
2013-02-28 05:27:00,37.3,36.3,29.61,NNW,345,2.3,2.3,96,0.00,OVC,,0.00,WeatherDisplay:10.37,2013-02-28 10:27:00,
2013-02-28 05:32:00,37.2,36.2,29.61,NNW,345,2.3,2.3,96,0.00,OVC,,0.00,WeatherDisplay:10.37,2013-02-28 10:32:00,
2013-02-28 05:37:00,37.2,36.2,29.61,NNW,345,0.0,0.0,96,0.00,OVC,,0.00,WeatherDisplay:10.37,2013-02-28 10:37:00,
2013-02-28 05:42:00,37.2,36.2,29.60,NNW,345,1.1,1.1,96,0.00,OVC,,0.00,WeatherDisplay:10.37,2013-02-28 10:42:00,
2013-02-28 05:48:00,37.1,36.1,29.60,NNW,345,2.3,2.3,96,0.00,OVC,,0.00,WeatherDisplay:10.37,2013-02-28 10:48:00,
2013-02-28 05:53:00,37.1,36.1,29.60,NNW,345,3.5,3.5,96,0.00,OVC,,0.00,WeatherDisplay:10.37,2013-02-28 10:53:00,
2013-02-28 05:58:00,37.1,36.1,29.60,NNW,345,0.0,0.0,96,0.00,OVC,,0.00,WeatherDisplay:10.37,2013-02-28 10:58:00,
2013-02-28 06:03:00,37.1,36.1,29.60,NNW,345,0.0,0.0,96,0.00,OVC,,0.00,WeatherDisplay:10.37,2013-02-28 11:03:00,
2013-02-28 06:08:00,37.1,36.1,29.60,NNW,345,0.0,0.0,96,0.00,OVC,,0.00,WeatherDisplay:10.37,2013-02-28 11:08:00,
2013-02-28 06:14:00,37.0,36.0,29.60,NNW,345,0.0,0.0,96,0.00,OVC,,0.00,WeatherDisplay:10.37,2013-02-28 11:14:00,
2013-02-28 06:19:00,37.0,36.0,29.60,NNW,345,0.0,0.0,96,0.00,OVC,,0.00,WeatherDisplay:10.37,2013-02-28 11:19:00,
2013-02-28 06:24:00,37.0,36.0,29.60,NNW,345,1.1,1.1,96,0.00,OVC,,0.00,WeatherDisplay:10.37,2013-02-28 11:24:00,
2013-02-28 06:29:00,37.0,36.0,29.60,NNW,345,1.1,1.1,96,0.00,OVC,,0.00,WeatherDisplay:10.37,2013-02-28 11:29:00,
2013-02-28 06:35:00,37.0,36.0,29.60,NNW,345,3.5,3.5,96,0.00,OVC,,0.00,WeatherDisplay:10.37,2013-02-28 11:35:00,
2013-02-28 06:40:00,37.0,36.0,29.61,NNW,345,3.5,3.5,96,0.00,OVC,,0.00,WeatherDisplay:10.37,2013-02-28 11:40:00,
2013-02-28 06:45:00,36.9,35.9,29.61,NNW,345,0.0,4.0,96,0.00,OVC,,0.00,WeatherDisplay:10.37,2013-02-28 11:45:00,
2013-02-28 06:50:00,36.8,35.8,29.61,NNW,345,0.0,0.0,96,0.00,OVC,,0.00,WeatherDisplay:10.37,2013-02-28 11:50:00,
2013-02-28 06:55:00,36.8,35.8,29.61,NNW,345,0.0,0.0,96,0.00,OVC,,0.00,WeatherDisplay:10.37,2013-02-28 11:55:00,
2013-02-28 07:00:00,36.7,35.7,29.61,NNW,345,0.0,0.0,96,0.00,OVC,,0.00,WeatherDisplay:10.37,2013-02-28 12:00:00,
2013-02-28 07:05:00,36.7,35.7,29.61,NNW,345,1.1,0.0,96,0.00,OVC,,0.00,WeatherDisplay:10.37,2013-02-28 12:05:00,
2013-02-28 07:11:00,36.8,35.8,29.62,NNW,345,0.0,0.0,96,0.00,OVC,,0.00,WeatherDisplay:10.37,2013-02-28 12:11:00,
2013-02-28 07:16:00,36.8,35.8,29.62,NNW,345,0.0,0.0,96,0.01,RA,,0.01,WeatherDisplay:10.37,2013-02-28 12:16:00,
2013-02-28 07:21:00,36.8,35.8,29.62,NNW,345,0.0,0.0,96,0.01,RA,,0.01,WeatherDisplay:10.37,2013-02-28 12:21:00,
2013-02-28 07:26:00,36.8,35.8,29.62,NNW,345,0.0,0.0,96,0.01,OVC,,0.01,WeatherDisplay:10.37,2013-02-28 12:26:00,
2013-02-28 07:31:00,36.8,35.8,29.62,NNW,345,0.0,0.0,96,0.01,OVC,,0.01,WeatherDisplay:10.37,2013-02-28 12:31:00,
2013-02-28 07:37:00,36.8,35.8,29.62,NNW,345,0.0,0.0,96,0.02,RA,,0.02,WeatherDisplay:10.37,2013-02-28 12:37:00,
2013-02-28 07:42:00,36.9,35.9,29.62,NNW,345,1.1,1.1,96,0.02,RA,,0.02,WeatherDisplay:10.37,2013-02-28 12:42:00,
2013-02-28 07:47:00,37.0,36.0,29.62,NNW,345,0.0,0.0,96,0.02,OVC,,0.02,WeatherDisplay:10.37,2013-02-28 12:47:00,
2013-02-28 07:52:00,37.0,36.0,29.62,NNW,345,2.3,2.3,96,0.02,OVC,,0.02,WeatherDisplay:10.37,2013-02-28 12:52:00,
2013-02-28 07:57:00,37.0,36.0,29.62,NNW,345,3.5,3.5,96,0.02,OVC,,0.02,WeatherDisplay:10.37,2013-02-28 12:57:00,
2013-02-28 08:03:00,37.1,36.1,29.62,NNW,345,3.5,3.5,96,0.02,OVC,,0.02,WeatherDisplay:10.37,2013-02-28 13:03:00,
2013-02-28 08:08:00,37.2,36.2,29.62,NNW,345,3.5,3.5,96,0.02,OVC,,0.02,WeatherDisplay:10.37,2013-02-28 13:08:00,
2013-02-28 08:13:00,37.1,36.1,29.62,NNW,345,3.5,3.5,96,0.01,OVC,,0.02,WeatherDisplay:10.37,2013-02-28 13:13:00,
2013-02-28 08:18:00,37.1,36.1,29.62,NNW,345,3.5,3.5,96,0.02,RA,,0.03,WeatherDisplay:10.37,2013-02-28 13:18:00,
2013-02-28 08:23:00,37.0,36.0,29.62,NNW,345,4.0,4.1,96,0.02,RA,,0.03,WeatherDisplay:10.37,2013-02-28 13:23:00,
2013-02-28 08:29:00,37.0,36.0,29.62,NNW,345,3.5,3.5,96,0.02,OVC,,0.03,WeatherDisplay:10.37,2013-02-28 13:29:00,
2013-02-28 08:34:00,37.1,36.1,29.62,NNW,345,3.5,3.5,96,0.01,OVC,,0.03,WeatherDisplay:10.37,2013-02-28 13:34:00,
2013-02-28 08:39:00,37.2,36.2,29.61,NNW,345,3.5,3.5,96,0.01,OVC,,0.03,WeatherDisplay:10.37,2013-02-28 13:39:00,
2013-02-28 08:44:00,37.3,36.3,29.62,NNW,345,2.3,2.3,96,0.01,OVC,,0.03,WeatherDisplay:10.37,2013-02-28 13:44:00,
2013-02-28 08:49:00,37.3,36.3,29.61,NNW,345,3.0,3.0,96,0.01,OVC,,0.03,WeatherDisplay:10.37,2013-02-28 13:49:00,
2013-02-28 08:55:00,37.3,36.3,29.62,NNW,345,2.3,2.3,96,0.01,OVC,,0.03,WeatherDisplay:10.37,2013-02-28 13:55:00,
2013-02-28 09:00:00,37.5,36.5,29.61,NNW,345,0.0,3.0,96,0.00,RA,,0.03,WeatherDisplay:10.37,2013-02-28 14:00:00,
2013-02-28 09:05:00,37.7,36.7,29.61,NNW,345,3.0,3.0,96,0.01,OVC,,0.03,WeatherDisplay:10.37,2013-02-28 14:05:00,
2013-02-28 09:10:00,37.7,36.7,29.61,NNW,345,1.1,0.0,96,0.01,OVC,,0.03,WeatherDisplay:10.37,2013-02-28 14:10:00,
2013-02-28 09:16:00,37.8,36.8,29.61,NNW,345,2.3,2.3,96,0.00,OVC,,0.03,WeatherDisplay:10.37,2013-02-28 14:16:00,
2013-02-28 09:21:00,38.0,37.0,29.61,NNW,345,1.1,0.0,96,0.00,OVC,,0.03,WeatherDisplay:10.37,2013-02-28 14:21:00,
2013-02-28 09:26:00,38.2,37.2,29.61,NNW,345,1.1,0.0,96,0.00,OVC,,0.03,WeatherDisplay:10.37,2013-02-28 14:26:00,
2013-02-28 09:31:00,38.3,37.3,29.61,NNW,345,0.0,0.0,96,0.00,OVC,,0.03,WeatherDisplay:10.37,2013-02-28 14:31:00,
2013-02-28 09:36:00,38.4,37.4,29.61,NNW,345,1.1,0.0,96,0.00,OVC,,0.03,WeatherDisplay:10.37,2013-02-28 14:36:00,
2013-02-28 09:41:00,38.5,37.5,29.61,NNW,345,1.0,1.0,96,0.00,OVC,,0.03,WeatherDisplay:10.37,2013-02-28 14:41:00,
2013-02-28 09:47:00,38.6,37.6,29.61,NNW,345,0.0,0.0,96,0.00,OVC,,0.03,WeatherDisplay:10.37,2013-02-28 14:47:00,
2013-02-28 09:52:00,38.8,37.8,29.61,NNW,345,0.0,0.0,96,0.00,OVC,,0.03,WeatherDisplay:10.37,2013-02-28 14:52:00,
2013-02-28 09:57:00,38.9,37.9,29.61,NNW,345,0.0,0.0,96,0.00,OVC,,0.03,WeatherDisplay:10.37,2013-02-28 14:57:00,
2013-02-28 10:02:00,39.2,38.2,29.61,NNW,345,0.0,0.0,96,0.00,OVC,,0.03,WeatherDisplay:10.37,2013-02-28 15:02:00,
2013-02-28 10:07:00,39.3,38.3,29.60,NNW,345,0.0,0.0,96,0.00,OVC,,0.03,WeatherDisplay:10.37,2013-02-28 15:07:00,
2013-02-28 10:12:00,39.4,38.4,29.60,NNW,345,0.0,0.0,96,0.00,OVC,,0.03,WeatherDisplay:10.37,2013-02-28 15:12:00,
2013-02-28 10:18:00,39.4,38.4,29.60,NNW,345,0.0,0.0,96,0.00,OVC,,0.03,WeatherDisplay:10.37,2013-02-28 15:18:00,
2013-02-28 10:23:00,39.5,38.5,29.60,NNW,345,0.0,0.0,96,0.00,OVC,,0.03,WeatherDisplay:10.37,2013-02-28 15:23:00,
2013-02-28 10:28:00,39.7,38.7,29.60,NNW,345,0.0,0.0,96,0.00,OVC,,0.03,WeatherDisplay:10.37,2013-02-28 15:28:00,
2013-02-28 10:33:00,39.8,38.8,29.60,NNW,345,0.0,0.0,96,0.00,OVC,,0.03,WeatherDisplay:10.37,2013-02-28 15:33:00,
2013-02-28 10:39:00,40.4,39.4,29.60,NNW,345,0.0,0.0,96,0.00,OVC,,0.03,WeatherDisplay:10.37,2013-02-28 15:39:00,
2013-02-28 10:44:00,39.7,38.4,29.60,NNW,345,0.0,0.1,95,0.00,OVC,,0.03,WeatherDisplay:10.37,2013-02-28 15:44:00,
2013-02-28 10:49:00,39.3,38.0,29.60,NNW,345,0.0,0.0,95,0.00,OVC,,0.03,WeatherDisplay:10.37,2013-02-28 15:49:00,
2013-02-28 10:55:00,39.2,37.9,29.60,NNW,345,0.0,0.0,95,0.00,OVC,,0.03,WeatherDisplay:10.37,2013-02-28 15:55:00,
2013-02-28 11:00:00,39.3,38.0,29.59,NNW,345,1.1,1.1,95,0.00,OVC,,0.03,WeatherDisplay:10.37,2013-02-28 16:00:00,
2013-02-28 11:05:00,39.5,38.2,29.59,NNW,345,0.0,0.0,95,0.00,BKN,,0.03,WeatherDisplay:10.37,2013-02-28 16:05:00,
2013-02-28 11:10:00,40.2,38.9,29.59,NNW,345,0.0,0.0,95,0.00,BKN,,0.03,WeatherDisplay:10.37,2013-02-28 16:10:00,
2013-02-28 11:16:00,40.8,39.5,29.59,NNW,345,0.0,0.0,95,0.00,BKN,,0.03,WeatherDisplay:10.37,2013-02-28 16:16:00,
2013-02-28 11:21:00,41.0,39.7,29.59,NNW,345,0.0,0.0,95,0.00,BKN,,0.03,WeatherDisplay:10.37,2013-02-28 16:21:00,
2013-02-28 11:26:00,40.9,39.3,29.59,NNW,345,0.0,0.0,94,0.00,BKN,,0.03,WeatherDisplay:10.37,2013-02-28 16:26:00,
2013-02-28 11:31:00,40.8,39.2,29.58,NNW,345,0.0,0.0,94,0.00,BKN,,0.03,WeatherDisplay:10.37,2013-02-28 16:31:00,
2013-02-28 11:36:00,41.3,39.7,29.58,NNW,345,1.1,1.1,94,0.00,BKN,,0.03,WeatherDisplay:10.37,2013-02-28 16:36:00,
2013-02-28 11:41:00,41.5,39.9,29.58,NNW,345,1.1,0.0,94,0.00,BKN,,0.03,WeatherDisplay:10.37,2013-02-28 16:41:00,
2013-02-28 11:46:00,41.6,40.0,29.58,NNW,345,1.1,0.0,94,0.00,BKN,,0.03,WeatherDisplay:10.37,2013-02-28 16:46:00,
2013-02-28 11:52:00,42.0,40.4,29.58,NNW,345,1.1,0.0,94,0.00,BKN,,0.03,WeatherDisplay:10.37,2013-02-28 16:52:00,
2013-02-28 11:57:00,42.1,40.5,29.58,NNW,345,0.0,0.0,94,0.00,BKN,,0.03,WeatherDisplay:10.37,2013-02-28 16:57:00,
2013-02-28 12:02:00,42.3,40.4,29.57,East,95,4.0,4.0,93,0.00,SCT,,0.03,WeatherDisplay:10.37,2013-02-28 17:02:00,
2013-02-28 12:08:00,42.6,40.7,29.57,East,95,1.1,1.1,93,0.00,SCT,,0.03,WeatherDisplay:10.37,2013-02-28 17:08:00,
2013-02-28 12:13:00,42.3,40.1,29.57,ESE,117,4.6,4.6,92,0.00,SCT,,0.03,WeatherDisplay:10.37,2013-02-28 17:13:00,
2013-02-28 12:18:00,42.2,40.3,29.56,ESE,117,2.3,2.3,93,0.00,SCT,,0.03,WeatherDisplay:10.37,2013-02-28 17:18:00,
2013-02-28 12:23:00,42.7,40.8,29.56,ESE,117,3.5,3.5,93,0.00,SCT,,0.03,WeatherDisplay:10.37,2013-02-28 17:23:00,
2013-02-28 12:28:00,42.4,40.2,29.56,ESE,117,4.6,4.6,92,0.00,SCT,,0.03,WeatherDisplay:10.37,2013-02-28 17:28:00,
2013-02-28 12:33:00,42.8,40.6,29.56,SSE,164,8.1,8.1,92,0.00,SCT,,0.03,WeatherDisplay:10.37,2013-02-28 17:33:00,
2013-02-28 12:38:00,42.6,40.4,29.56,SSE,157,9.2,9.2,92,0.00,SCT,,0.03,WeatherDisplay:10.37,2013-02-28 17:38:00,
2013-02-28 12:43:00,42.6,40.2,29.56,SSE,167,8.1,8.1,91,0.00,SCT,,0.03,WeatherDisplay:10.37,2013-02-28 17:43:00,
2013-02-28 12:49:00,42.3,39.9,29.56,SSE,168,6.9,6.9,91,0.00,SCT,,0.03,WeatherDisplay:10.37,2013-02-28 17:49:00,
2013-02-28 12:54:00,42.5,40.1,29.56,South,173,5.8,5.8,91,0.00,SCT,,0.03,WeatherDisplay:10.37,2013-02-28 17:54:00,
2013-02-28 12:59:00,42.7,40.3,29.55,South,169,7.0,7.0,91,0.00,SCT,,0.03,WeatherDisplay:10.37,2013-02-28 17:59:00,
2013-02-28 13:04:00,42.7,40.3,29.55,SSE,168,7.0,7.0,91,0.00,SCT,,0.03,WeatherDisplay:10.37,2013-02-28 18:04:00,
2013-02-28 13:10:00,42.5,39.8,29.54,SSE,147,8.1,8.1,90,0.00,SCT,,0.03,WeatherDisplay:10.37,2013-02-28 18:10:00,
2013-02-28 13:15:00,42.9,40.2,29.54,SE,133,6.9,6.9,90,0.00,SCT,,0.03,WeatherDisplay:10.37,2013-02-28 18:15:00,
2013-02-28 13:20:00,43.2,40.5,29.54,SE,129,6.0,6.0,90,0.00,SCT,,0.03,WeatherDisplay:10.37,2013-02-28 18:20:00,
2013-02-28 13:25:00,42.9,39.9,29.54,ESE,117,7.0,7.0,89,0.00,SCT,,0.03,WeatherDisplay:10.37,2013-02-28 18:25:00,
2013-02-28 13:30:00,43.0,40.0,29.54,ESE,114,5.0,5.0,89,0.00,SCT,,0.03,WeatherDisplay:10.37,2013-02-28 18:30:00,
2013-02-28 13:35:00,43.1,40.1,29.54,ESE,114,4.6,4.6,89,0.00,SCT,,0.03,WeatherDisplay:10.37,2013-02-28 18:35:00,
2013-02-28 13:41:00,43.4,40.1,29.54,SSE,158,5.8,5.8,88,0.00,SCT,,0.03,WeatherDisplay:10.37,2013-02-28 18:41:00,
2013-02-28 13:46:00,44.0,40.4,29.53,South,169,6.0,6.0,87,0.00,SCT,,0.03,WeatherDisplay:10.37,2013-02-28 18:46:00,
2013-02-28 13:51:00,44.3,40.4,29.54,SSE,167,4.6,4.6,86,0.00,SCT,,0.03,WeatherDisplay:10.37,2013-02-28 18:51:00,
2013-02-28 13:56:00,44.5,40.6,29.54,South,183,9.2,9.2,86,0.00,SCT,,0.03,WeatherDisplay:10.37,2013-02-28 18:56:00,
2013-02-28 14:01:00,44.7,40.5,29.54,SSE,160,7.0,7.0,85,0.00,BKN,,0.03,WeatherDisplay:10.37,2013-02-28 19:01:00,
2013-02-28 14:07:00,44.5,40.3,29.54,SSE,164,5.8,5.8,85,0.00,BKN,,0.03,WeatherDisplay:10.37,2013-02-28 19:07:00,
2013-02-28 14:12:00,44.4,40.2,29.54,SE,146,9.2,9.2,85,0.00,BKN,,0.03,WeatherDisplay:10.37,2013-02-28 19:12:00,
2013-02-28 14:17:00,44.2,40.0,29.54,SSE,161,7.0,7.0,85,0.00,BKN,,0.03,WeatherDisplay:10.37,2013-02-28 19:17:00,
2013-02-28 14:22:00,44.2,40.0,29.54,SSE,150,8.1,8.1,85,0.00,BKN,,0.03,WeatherDisplay:10.37,2013-02-28 19:22:00,
2013-02-28 14:28:00,44.3,40.1,29.54,SSE,154,8.1,8.1,85,0.00,BKN,,0.03,WeatherDisplay:10.37,2013-02-28 19:28:00,
2013-02-28 14:33:00,44.3,40.1,29.54,SSE,150,9.2,9.2,85,0.00,BKN,,0.03,WeatherDisplay:10.37,2013-02-28 19:33:00,
2013-02-28 14:38:00,44.2,40.0,29.54,SSE,153,9.2,9.2,85,0.00,BKN,,0.03,WeatherDisplay:10.37,2013-02-28 19:38:00,
2013-02-28 14:43:00,44.5,40.0,29.54,SSE,155,8.1,8.1,84,0.00,BKN,,0.03,WeatherDisplay:10.37,2013-02-28 19:43:00,
2013-02-28 14:48:00,44.6,40.1,29.54,SSE,148,8.1,8.1,84,0.00,BKN,,0.03,WeatherDisplay:10.37,2013-02-28 19:48:00,
2013-02-28 14:54:00,44.6,40.1,29.53,SE,144,5.8,5.8,84,0.00,BKN,,0.03,WeatherDisplay:10.37,2013-02-28 19:54:00,
2013-02-28 14:59:00,44.7,40.2,29.53,SSE,147,8.1,8.1,84,0.00,BKN,,0.03,WeatherDisplay:10.37,2013-02-28 19:59:00,
2013-02-28 15:04:00,44.6,40.1,29.53,SE,145,8.1,8.1,84,0.00,OVC,,0.03,WeatherDisplay:10.37,2013-02-28 20:04:00,
2013-02-28 15:09:00,44.8,40.3,29.53,SE,140,8.1,8.1,84,0.00,OVC,,0.03,WeatherDisplay:10.37,2013-02-28 20:09:00,
2013-02-28 15:15:00,45.0,40.4,29.53,SE,141,3.0,8.0,84,0.00,RA,,0.03,WeatherDisplay:10.37,2013-02-28 20:15:00,
2013-02-28 15:20:00,44.5,40.0,29.53,East,101,6.9,6.9,84,0.00,OVC,,0.03,WeatherDisplay:10.37,2013-02-28 20:20:00,
2013-02-28 15:25:00,44.2,40.0,29.53,ESE,111,5.0,5.0,85,0.00,OVC,,0.03,WeatherDisplay:10.37,2013-02-28 20:25:00,
2013-02-28 15:30:00,44.1,39.9,29.53,East,101,9.2,9.2,85,0.00,OVC,,0.03,WeatherDisplay:10.37,2013-02-28 20:30:00,
2013-02-28 15:35:00,43.7,39.5,29.53,ESE,109,11.5,11.5,85,0.00,OVC,,0.03,WeatherDisplay:10.37,2013-02-28 20:35:00,
2013-02-28 15:40:00,43.4,39.5,29.53,ESE,111,8.1,8.1,86,0.00,OVC,,0.03,WeatherDisplay:10.37,2013-02-28 20:40:00,
2013-02-28 15:46:00,43.3,39.4,29.53,ESE,111,7.0,7.0,86,0.00,OVC,,0.03,WeatherDisplay:10.37,2013-02-28 20:46:00,
2013-02-28 15:51:00,42.9,39.0,29.53,East,96,9.2,9.2,86,0.00,OVC,,0.03,WeatherDisplay:10.37,2013-02-28 20:51:00,
2013-02-28 15:56:00,42.5,39.2,29.53,ESE,104,9.2,9.2,88,0.00,OVC,,0.03,WeatherDisplay:10.37,2013-02-28 20:56:00,
2013-02-28 16:01:00,42.9,39.6,29.53,ESE,116,6.9,6.9,88,0.00,BKN,,0.03,WeatherDisplay:10.37,2013-02-28 21:01:00,
2013-02-28 16:06:00,43.8,40.2,29.52,ESE,116,4.6,4.6,87,0.00,BKN,,0.03,WeatherDisplay:10.37,2013-02-28 21:06:00,
2013-02-28 16:12:00,43.8,40.2,29.52,ESE,116,4.0,4.0,87,0.00,BKN,,0.03,WeatherDisplay:10.37,2013-02-28 21:12:00,
2013-02-28 16:17:00,43.7,39.8,29.52,ESE,116,4.0,4.0,86,0.00,BKN,,0.03,WeatherDisplay:10.37,2013-02-28 21:17:00,
2013-02-28 16:22:00,43.2,39.6,29.52,ESE,103,6.0,6.0,87,0.00,BKN,,0.03,WeatherDisplay:10.37,2013-02-28 21:22:00,
2013-02-28 16:27:00,43.1,39.8,29.52,East,98,5.0,5.0,88,0.00,BKN,,0.03,WeatherDisplay:10.37,2013-02-28 21:27:00,
2013-02-28 16:33:00,43.5,40.2,29.52,East,98,4.0,4.0,88,0.00,BKN,,0.03,WeatherDisplay:10.37,2013-02-28 21:33:00,
2013-02-28 16:38:00,44.0,40.1,29.52,East,98,4.6,4.6,86,0.00,BKN,,0.03,WeatherDisplay:10.37,2013-02-28 21:38:00,
2013-02-28 16:43:00,44.3,40.4,29.52,East,98,4.0,4.0,86,0.00,BKN,,0.03,WeatherDisplay:10.37,2013-02-28 21:43:00,
2013-02-28 16:48:00,44.4,40.2,29.52,East,98,5.0,5.0,85,0.00,BKN,,0.03,WeatherDisplay:10.37,2013-02-28 21:48:00,
2013-02-28 16:53:00,44.4,39.9,29.52,East,98,5.0,5.0,84,0.00,BKN,,0.03,WeatherDisplay:10.37,2013-02-28 21:53:00,
2013-02-28 16:58:00,44.6,40.1,29.52,East,98,3.5,3.5,84,0.00,BKN,,0.03,WeatherDisplay:10.37,2013-02-28 21:58:00,
2013-02-28 17:03:00,44.6,39.8,29.52,SSE,161,6.0,6.0,83,0.00,OVC,,0.03,WeatherDisplay:10.37,2013-02-28 22:03:00,
2013-02-28 17:09:00,44.3,40.1,29.52,South,174,6.9,6.9,85,0.00,OVC,,0.03,WeatherDisplay:10.37,2013-02-28 22:09:00,
2013-02-28 17:14:00,43.9,40.0,29.52,SSW,196,6.9,6.9,86,0.00,OVC,,0.03,WeatherDisplay:10.37,2013-02-28 22:14:00,
2013-02-28 17:19:00,43.4,39.8,29.53,SSW,192,6.0,6.0,87,0.00,OVC,,0.03,WeatherDisplay:10.37,2013-02-28 22:19:00,
2013-02-28 17:24:00,43.1,40.9,29.53,SSW,193,5.8,5.8,92,0.00,OVC,,0.03,WeatherDisplay:10.37,2013-02-28 22:24:00,
2013-02-28 17:30:00,43.0,39.7,29.53,SSW,195,4.6,4.6,88,0.00,OVC,,0.03,WeatherDisplay:10.37,2013-02-28 22:30:00,
2013-02-28 17:35:00,42.9,39.6,29.53,SSW,203,4.6,4.6,88,0.00,OVC,,0.03,WeatherDisplay:10.37,2013-02-28 22:35:00,
2013-02-28 17:40:00,42.8,39.5,29.53,SSW,203,2.3,2.3,88,0.00,OVC,,0.03,WeatherDisplay:10.37,2013-02-28 22:40:00,
2013-02-28 17:45:00,42.7,39.7,29.53,SSW,203,0.0,0.0,89,0.00,OVC,,0.03,WeatherDisplay:10.37,2013-02-28 22:45:00,
2013-02-28 17:50:00,42.6,39.6,29.53,SSW,203,1.0,0.0,89,0.00,OVC,,0.03,WeatherDisplay:10.37,2013-02-28 22:50:00,
2013-02-28 17:56:00,42.5,39.5,29.53,SSW,203,0.0,0.0,89,0.00,OVC,,0.03,WeatherDisplay:10.37,2013-02-28 22:56:00,
2013-02-28 18:01:00,42.5,39.5,29.53,SSW,203,1.1,0.0,89,0.00,OVC,,0.03,WeatherDisplay:10.37,2013-02-28 23:01:00,
2013-02-28 18:06:00,42.2,39.2,29.53,SSW,203,2.3,2.3,89,0.00,OVC,,0.03,WeatherDisplay:10.37,2013-02-28 23:06:00,
2013-02-28 18:11:00,41.9,38.9,29.53,SSW,203,0.0,0.0,89,0.00,OVC,,0.03,WeatherDisplay:10.37,2013-02-28 23:11:00,
2013-02-28 18:17:00,41.7,39.0,29.53,SSW,203,0.0,0.0,90,0.00,OVC,,0.03,WeatherDisplay:10.37,2013-02-28 23:17:00,
2013-02-28 18:22:00,41.3,38.6,29.54,SSW,203,2.3,2.3,90,0.00,OVC,,0.03,WeatherDisplay:10.37,2013-02-28 23:22:00,
2013-02-28 18:27:00,41.0,38.3,29.54,SSW,203,0.0,0.0,90,0.00,OVC,,0.03,WeatherDisplay:10.37,2013-02-28 23:27:00,
2013-02-28 18:32:00,40.7,38.3,29.54,SSW,203,0.0,0.0,91,0.00,OVC,,0.03,WeatherDisplay:10.37,2013-02-28 23:32:00,
2013-02-28 18:37:00,40.5,38.1,29.54,SSW,203,0.0,0.0,91,0.00,OVC,,0.03,WeatherDisplay:10.37,2013-02-28 23:37:00,
2013-02-28 18:43:00,40.4,38.0,29.54,SSW,203,0.0,0.0,91,0.00,OVC,,0.03,WeatherDisplay:10.37,2013-02-28 23:43:00,
2013-02-28 18:48:00,40.2,38.1,29.54,SSW,203,0.0,0.0,92,0.00,OVC,,0.03,WeatherDisplay:10.37,2013-02-28 23:48:00,
2013-02-28 18:53:00,40.1,38.0,29.54,SSW,203,0.0,0.0,92,0.00,OVC,,0.03,WeatherDisplay:10.37,2013-02-28 23:53:00,
2013-02-28 18:58:00,40.1,38.0,29.54,SSW,203,0.0,0.0,92,0.00,OVC,,0.03,WeatherDisplay:10.37,2013-02-28 23:58:00,
2013-02-28 19:03:00,40.0,38.1,29.54,SSW,203,0.0,0.0,93,0.00,OVC,,0.03,WeatherDisplay:10.37,2013-03-01 00:03:00,
2013-02-28 19:09:00,39.9,38.0,29.54,SSW,203,0.0,0.0,93,0.00,OVC,,0.03,WeatherDisplay:10.37,2013-03-01 00:09:00,
2013-02-28 19:14:00,39.8,37.9,29.54,SSW,203,0.0,0.0,93,0.00,OVC,,0.03,WeatherDisplay:10.37,2013-03-01 00:14:00,
2013-02-28 19:19:00,39.7,37.8,29.54,SSW,203,0.0,0.0,93,0.00,OVC,,0.03,WeatherDisplay:10.37,2013-03-01 00:19:00,
2013-02-28 19:25:00,39.6,38.0,29.54,SSW,203,0.0,0.0,94,0.00,OVC,,0.03,WeatherDisplay:10.37,2013-03-01 00:25:00,
2013-02-28 19:30:00,39.7,38.1,29.54,SSW,203,0.0,0.0,94,0.00,RA,,0.03,WeatherDisplay:10.37,2013-03-01 00:30:00,
2013-02-28 19:35:00,39.8,38.2,29.53,SSW,203,0.0,0.0,94,0.00,OVC,,0.03,WeatherDisplay:10.37,2013-03-01 00:35:00,
2013-02-28 19:40:00,39.9,38.3,29.54,SSW,203,0.0,0.0,94,0.00,OVC,,0.03,WeatherDisplay:10.37,2013-03-01 00:40:00,
2013-02-28 19:46:00,39.8,38.2,29.54,SSW,203,0.0,0.0,94,0.00,OVC,,0.03,WeatherDisplay:10.37,2013-03-01 00:46:00,
2013-02-28 19:51:00,39.9,38.3,29.54,SSW,203,0.0,0.0,94,0.00,OVC,,0.03,WeatherDisplay:10.37,2013-03-01 00:51:00,
2013-02-28 19:56:00,39.8,38.2,29.54,SSW,203,0.0,0.0,94,0.00,OVC,,0.03,WeatherDisplay:10.37,2013-03-01 00:56:00,
2013-02-28 20:01:00,39.6,38.0,29.54,SSW,203,0.0,0.0,94,0.00,OVC,,0.03,WeatherDisplay:10.37,2013-03-01 01:01:00,
2013-02-28 20:06:00,39.5,37.9,29.54,SSW,203,3.5,3.5,94,0.00,OVC,,0.03,WeatherDisplay:10.37,2013-03-01 01:06:00,
2013-02-28 20:12:00,39.2,37.6,29.54,SSW,203,0.0,0.0,94,0.00,OVC,,0.03,WeatherDisplay:10.37,2013-03-01 01:12:00,
2013-02-28 20:17:00,39.1,37.5,29.54,SSW,203,0.0,0.0,94,0.00,OVC,,0.03,WeatherDisplay:10.37,2013-03-01 01:17:00,
2013-02-28 20:22:00,39.0,37.7,29.54,SSW,203,0.0,0.0,95,0.00,OVC,,0.03,WeatherDisplay:10.37,2013-03-01 01:22:00,
2013-02-28 20:27:00,39.0,37.7,29.54,SSW,203,0.0,0.0,95,0.00,OVC,,0.03,WeatherDisplay:10.37,2013-03-01 01:27:00,
2013-02-28 20:33:00,39.1,37.8,29.54,SSW,203,2.3,2.3,95,0.00,OVC,,0.03,WeatherDisplay:10.37,2013-03-01 01:33:00,
2013-02-28 20:38:00,39.2,37.9,29.54,SSW,203,2.3,2.3,95,0.00,OVC,,0.03,WeatherDisplay:10.37,2013-03-01 01:38:00,
2013-02-28 20:43:00,39.3,38.0,29.54,SSW,203,2.3,2.3,95,0.00,OVC,,0.03,WeatherDisplay:10.37,2013-03-01 01:43:00,
2013-02-28 20:49:00,39.4,38.1,29.54,WNW,291,3.5,3.5,95,0.00,OVC,,0.03,WeatherDisplay:10.37,2013-03-01 01:49:00,
2013-02-28 20:54:00,39.5,38.2,29.54,NW,319,3.5,3.5,95,0.00,OVC,,0.03,WeatherDisplay:10.37,2013-03-01 01:54:00,
2013-02-28 20:59:00,39.5,38.2,29.54,NW,319,4.0,4.0,95,0.00,OVC,,0.03,WeatherDisplay:10.37,2013-03-01 01:59:00,
2013-02-28 21:04:00,39.3,38.0,29.54,NW,319,4.0,4.0,95,0.00,-RA,,0.03,WeatherDisplay:10.37,2013-03-01 02:04:00,
2013-02-28 21:09:00,39.2,37.9,29.54,NW,319,3.5,3.5,95,0.00,-RA,,0.03,WeatherDisplay:10.37,2013-03-01 02:09:00,
2013-02-28 21:14:00,39.1,37.8,29.54,NW,319,3.5,3.5,95,0.00,-RA,,0.03,WeatherDisplay:10.37,2013-03-01 02:14:00,
2013-02-28 21:19:00,39.1,37.8,29.54,NW,319,2.3,2.3,95,0.00,-RA,,0.03,WeatherDisplay:10.37,2013-03-01 02:19:00,
2013-02-28 21:25:00,39.1,37.8,29.54,NW,319,2.0,2.0,95,0.00,-RA,,0.03,WeatherDisplay:10.37,2013-03-01 02:25:00,
2013-02-28 21:30:00,39.2,37.9,29.54,NW,319,1.0,3.0,95,0.00,-RA,,0.03,WeatherDisplay:10.37,2013-03-01 02:30:00,
2013-02-28 21:35:00,39.2,37.9,29.54,NW,319,2.0,2.0,95,0.00,-RA,,0.03,WeatherDisplay:10.37,2013-03-01 02:35:00,
2013-02-28 21:40:00,39.2,37.9,29.54,NW,319,1.1,1.1,95,0.00,-RA,,0.03,WeatherDisplay:10.37,2013-03-01 02:40:00,
2013-02-28 21:46:00,39.2,37.9,29.54,NW,319,0.0,0.0,95,0.00,-RA,,0.03,WeatherDisplay:10.37,2013-03-01 02:46:00,
2013-02-28 21:51:00,39.3,38.0,29.54,NW,319,0.0,0.0,95,0.00,-RA,,0.03,WeatherDisplay:10.37,2013-03-01 02:51:00,
2013-02-28 21:56:00,39.4,38.1,29.54,NW,319,0.0,0.0,95,0.00,-RA,,0.03,WeatherDisplay:10.37,2013-03-01 02:56:00,
2013-02-28 22:01:00,39.6,38.3,29.54,NW,319,0.0,0.0,95,0.00,OVC,,0.03,WeatherDisplay:10.37,2013-03-01 03:01:00,
2013-02-28 22:06:00,39.7,38.4,29.54,NW,317,3.5,3.5,95,0.00,OVC,,0.03,WeatherDisplay:10.37,2013-03-01 03:06:00,
2013-02-28 22:11:00,39.7,38.4,29.54,NW,317,3.5,3.5,95,0.00,OVC,,0.03,WeatherDisplay:10.37,2013-03-01 03:11:00,
2013-02-28 22:16:00,39.8,38.5,29.54,NW,317,0.0,0.0,95,0.00,OVC,,0.03,WeatherDisplay:10.37,2013-03-01 03:16:00,
2013-02-28 22:22:00,39.8,38.5,29.54,NW,317,0.0,0.0,95,0.00,OVC,,0.03,WeatherDisplay:10.37,2013-03-01 03:22:00,
2013-02-28 22:27:00,39.8,38.5,29.54,NW,318,0.0,0.0,95,0.00,OVC,,0.03,WeatherDisplay:10.37,2013-03-01 03:27:00,
2013-02-28 22:32:00,39.9,38.6,29.53,NW,317,0.0,0.0,95,0.00,OVC,,0.03,WeatherDisplay:10.37,2013-03-01 03:32:00,
2013-02-28 22:37:00,39.8,38.5,29.53,NW,317,0.0,0.0,95,0.00,OVC,,0.03,WeatherDisplay:10.37,2013-03-01 03:37:00,
2013-02-28 22:42:00,39.6,38.3,29.53,NW,318,1.1,1.1,95,0.00,OVC,,0.03,WeatherDisplay:10.37,2013-03-01 03:42:00,
2013-02-28 22:48:00,39.4,38.1,29.54,NNW,340,2.3,2.3,95,0.00,OVC,,0.03,WeatherDisplay:10.37,2013-03-01 03:48:00,
2013-02-28 22:53:00,39.4,37.8,29.53,North,9,3.5,3.5,94,0.00,OVC,,0.03,WeatherDisplay:10.37,2013-03-01 03:53:00,
2013-02-28 22:58:00,39.3,37.7,29.53,North,10,3.5,3.5,94,0.00,OVC,,0.03,WeatherDisplay:10.37,2013-03-01 03:58:00,
2013-02-28 23:03:00,39.3,37.7,29.53,North,11,4.0,4.0,94,0.00,-RA,,0.03,WeatherDisplay:10.37,2013-03-01 04:03:00,
2013-02-28 23:08:00,39.2,37.6,29.53,NNE,17,3.5,3.5,94,0.00,-RA,,0.03,WeatherDisplay:10.37,2013-03-01 04:08:00,
2013-02-28 23:13:00,39.2,37.6,29.53,NNE,17,2.3,2.3,94,0.00,-RA,,0.03,WeatherDisplay:10.37,2013-03-01 04:13:00,
2013-02-28 23:18:00,39.1,37.5,29.53,NNE,17,0.0,0.0,94,0.00,-RA,,0.03,WeatherDisplay:10.37,2013-03-01 04:18:00,
2013-02-28 23:24:00,39.1,37.5,29.54,NNW,346,3.5,3.5,94,0.00,-RA,,0.03,WeatherDisplay:10.37,2013-03-01 04:24:00,
2013-02-28 23:29:00,39.2,37.6,29.54,NW,325,3.5,3.5,94,0.00,-RA,,0.03,WeatherDisplay:10.37,2013-03-01 04:29:00,
2013-02-28 23:34:00,39.4,37.8,29.54,NNW,327,4.6,4.6,94,0.00,-RA,,0.03,WeatherDisplay:10.37,2013-03-01 04:34:00,
2013-02-28 23:39:00,39.5,37.9,29.53,NNW,329,5.8,5.8,94,0.00,-RA,,0.03,WeatherDisplay:10.37,2013-03-01 04:39:00,
2013-02-28 23:44:00,39.6,38.0,29.54,NW,307,4.6,4.6,94,0.00,-RA,,0.03,WeatherDisplay:10.37,2013-03-01 04:44:00,
2013-02-28 23:50:00,39.7,37.8,29.53,NW,326,4.6,4.6,93,0.00,-RA,,0.03,WeatherDisplay:10.37,2013-03-01 04:50:00,
2013-02-28 23:55:00,39.8,37.9,29.53,NW,324,5.0,5.0,93,0.00,-RA,,0.03,WeatherDisplay:10.37,2013-03-01 04:55:00,